Time;durP1;ratioP1;P1;durP2;ratioP2;P2;SDS_P1;SDS_P2;PMS_P1;PMS_P2;Temp;Humidity;BMP_temperature;BMP_pressure;BME280_temperature;BME280_humidity;BME280_pressure;Samples;Min_cycle;Max_cycle;Signal;HPM_P1;HPM_P2
2021/07/16 00:00:08;;;;;;;4.47;3.10;;;23.20;69.60;;;;;;5064530;28;20629;-68
2021/07/16 00:02:35;;;;;;;4.73;3.00;;;23.10;69.70;;;;;;5065917;28;20213;-68
2021/07/16 00:05:03;;;;;;;12.23;3.40;;;23.10;69.90;;;;;;5066117;28;20295;-68
2021/07/16 00:07:30;;;;;;;7.57;3.10;;;23.10;70.00;;;;;;5064752;28;20660;-68
2021/07/16 00:09:57;;;;;;;7.07;3.53;;;23.00;70.10;;;;;;5067345;28;20224;-68
2021/07/16 00:12:24;;;;;;;5.53;3.37;;;23.00;70.20;;;;;;5063973;28;20214;-68
2021/07/16 00:14:51;;;;;;;3.60;3.10;;;23.00;70.30;;;;;;5066809;28;20225;-68
2021/07/16 00:17:18;;;;;;;4.07;3.60;;;22.90;70.30;;;;;;5065064;28;20222;-68
2021/07/16 00:19:45;;;;;;;6.33;3.37;;;22.90;70.50;;;;;;5065314;28;20723;-68
2021/07/16 00:22:12;;;;;;;8.23;3.07;;;22.90;70.70;;;;;;5063306;28;20222;-68
2021/07/16 00:24:39;;;;;;;8.17;3.50;;;22.90;70.80;;;;;;5063318;28;20589;-68
2021/07/16 00:27:06;;;;;;;5.33;3.87;;;22.90;70.90;;;;;;5063320;28;20295;-68
2021/07/16 00:29:33;;;;;;;7.33;3.00;;;22.90;71.00;;;;;;5066916;28;20217;-68
2021/07/16 00:32:00;;;;;;;4.00;3.13;;;22.90;71.10;;;;;;5063314;28;20213;-68
2021/07/16 00:34:28;;;;;;;7.27;3.47;;;22.90;71.20;;;;;;5065346;28;20314;-68
2021/07/16 00:36:55;;;;;;;7.20;3.43;;;22.90;71.20;;;;;;5065785;28;20597;-68
2021/07/16 00:39:22;;;;;;;7.70;3.53;;;23.00;71.20;;;;;;5066999;28;20210;-68
2021/07/16 00:41:50;;;;;;;9.80;3.17;;;22.90;71.00;;;;;;5063837;28;20225;-68
2021/07/16 00:44:19;;;;;;;8.17;4.37;;;22.90;71.10;;;;;;5066462;28;20237;-68
2021/07/16 00:46:47;;;;;;;18.10;4.70;;;22.90;71.30;;;;;;5065887;28;20531;-68
2021/07/16 00:49:14;;;;;;;6.60;3.83;;;22.90;71.20;;;;;;5065385;28;20222;-68
2021/07/16 00:51:41;;;;;;;5.77;4.10;;;22.90;71.30;;;;;;5066841;28;20283;-68
2021/07/16 00:54:09;;;;;;;8.47;4.20;;;22.90;71.50;;;;;;5063802;28;20228;-68
2021/07/16 00:56:36;;;;;;;7.50;3.87;;;22.80;71.50;;;;;;5063422;28;20264;-68
2021/07/16 00:59:04;;;;;;;21.73;4.93;;;22.90;71.60;;;;;;5067037;28;20226;-68
2021/07/16 01:01:31;;;;;;;7.60;4.63;;;22.90;71.60;;;;;;5065421;28;20221;-68
2021/07/16 01:03:59;;;;;;;8.07;4.03;;;22.90;71.50;;;;;;5062884;28;20654;-68
2021/07/16 01:06:27;;;;;;;4.47;3.93;;;22.90;71.60;;;;;;5062599;28;20222;-68
2021/07/16 01:08:55;;;;;;;9.83;4.83;;;22.90;71.60;;;;;;5066357;28;20234;-68
2021/07/16 01:11:22;;;;;;;12.07;5.13;;;22.90;71.50;;;;;;5063180;28;20265;-68
2021/07/16 01:13:49;;;;;;;7.70;4.50;;;22.90;71.60;;;;;;5065886;28;20678;-68
2021/07/16 01:16:16;;;;;;;7.43;4.50;;;22.90;71.70;;;;;;5064394;28;20288;-68
2021/07/16 01:18:44;;;;;;;5.93;3.83;;;22.90;71.70;;;;;;5065001;28;20237;-68
2021/07/16 01:21:13;;;;;;;6.20;4.50;;;22.90;71.90;;;;;;5064322;28;20277;-68
2021/07/16 01:23:41;;;;;;;8.90;4.23;;;22.90;71.90;;;;;;5066509;28;20228;-69
2021/07/16 01:26:09;;;;;;;8.57;3.50;;;22.90;71.90;;;;;;5071105;28;20229;-69
2021/07/16 01:28:39;;;;;;;6.83;3.73;;;22.90;72.10;;;;;;5069872;28;20248;-69
2021/07/16 01:31:08;;;;;;;6.70;4.00;;;22.90;72.20;;;;;;5069676;28;20301;-68
2021/07/16 01:33:35;;;;;;;6.57;4.10;;;22.90;72.30;;;;;;5068479;28;20210;-69
2021/07/16 01:36:02;;;;;;;7.50;4.57;;;22.90;72.40;;;;;;5071172;28;20205;-69
2021/07/16 01:38:29;;;;;;;4.03;3.43;;;23.00;72.40;;;;;;5070242;28;20241;-69
2021/07/16 01:40:56;;;;;;;6.60;3.60;;;23.00;72.60;;;;;;5070371;28;20214;-69
2021/07/16 01:43:25;;;;;;;9.07;3.60;;;23.00;72.70;;;;;;5071160;28;20263;-69
2021/07/16 01:45:52;;;;;;;4.83;3.53;;;23.00;72.70;;;;;;5067955;28;20228;-69
2021/07/16 01:48:19;;;;;;;9.83;4.63;;;23.00;72.90;;;;;;5068646;28;20234;-69
2021/07/16 01:50:48;;;;;;;7.67;4.17;;;22.90;72.80;;;;;;5070399;28;20235;-69
2021/07/16 01:53:20;;;;;;;4.93;3.70;;;22.90;73.00;;;;;;5070024;28;20296;-68
2021/07/16 01:55:48;;;;;;;7.93;4.57;;;22.80;73.20;;;;;;5069225;28;20206;-68
2021/07/16 01:58:16;;;;;;;6.10;4.03;;;22.80;73.20;;;;;;5067004;28;20222;-68
2021/07/16 02:00:47;;;;;;;6.03;3.63;;;22.80;73.30;;;;;;5065913;28;20221;-68
2021/07/16 02:03:17;;;;;;;7.73;3.87;;;22.80;73.30;;;;;;5062635;28;20213;-68
2021/07/16 02:05:46;;;;;;;5.50;3.80;;;22.80;73.40;;;;;;5064085;28;20210;-68
2021/07/16 02:08:19;;;;;;;5.87;4.00;;;22.90;73.70;;;;;;5063069;28;20535;-69
2021/07/16 02:10:48;;;;;;;5.27;3.90;;;22.90;73.90;;;;;;5062671;28;20525;-69
2021/07/16 02:13:16;;;;;;;9.07;4.03;;;22.90;73.90;;;;;;5064387;28;20210;-69
2021/07/16 02:15:46;;;;;;;8.17;3.90;;;22.90;74.00;;;;;;5063825;28;20268;-69
2021/07/16 02:18:13;;;;;;;8.27;4.20;;;22.90;74.00;;;;;;5062386;28;20297;-69
2021/07/16 02:20:42;;;;;;;5.93;3.87;;;22.90;74.00;;;;;;5065093;28;20217;-69
2021/07/16 02:23:18;;;;;;;6.67;3.43;;;22.90;74.10;;;;;;5061548;28;20209;-69
2021/07/16 02:25:45;;;;;;;6.90;4.17;;;22.90;74.20;;;;;;5064512;28;20214;-69
2021/07/16 02:28:26;;;;;;;7.20;4.43;;;22.90;74.20;;;;;;5060772;28;20233;-69
2021/07/16 02:30:53;;;;;;;15.33;4.67;;;22.90;74.30;;;;;;5061521;28;20735;-69
2021/07/16 02:33:22;;;;;;;14.90;3.90;;;22.90;74.10;;;;;;5063603;28;20215;-69
2021/07/16 02:35:50;;;;;;;8.30;4.40;;;22.90;73.90;;;;;;5061982;28;20222;-69
2021/07/16 02:38:17;;;;;;;7.57;4.67;;;22.90;73.90;;;;;;5065246;28;20214;-69
2021/07/16 02:40:45;;;;;;;8.53;4.30;;;22.90;73.70;;;;;;5065452;28;20232;-69
2021/07/16 02:43:11;;;;;;;9.90;5.20;;;23.00;73.70;;;;;;5063310;28;20221;-69
2021/07/16 02:45:38;;;;;;;9.67;4.70;;;23.00;73.50;;;;;;5061497;28;20222;-69
2021/07/16 02:48:05;;;;;;;11.30;5.33;;;23.00;73.30;;;;;;5061471;28;20238;-68
2021/07/16 02:50:35;;;;;;;9.27;4.80;;;23.00;73.20;;;;;;5063287;28;20812;-68
2021/07/16 02:53:07;;;;;;;7.03;4.13;;;23.00;73.10;;;;;;5057674;28;20233;-68
2021/07/16 02:55:35;;;;;;;6.73;4.33;;;23.00;73.10;;;;;;5063847;28;20537;-68
2021/07/16 02:58:03;;;;;;;9.17;4.53;;;23.00;73.10;;;;;;5063434;28;20535;-68
2021/07/16 03:00:31;;;;;;;8.00;4.50;;;23.00;73.10;;;;;;5061973;28;20215;-68
2021/07/16 03:02:58;;;;;;;6.87;5.13;;;23.00;73.20;;;;;;5064815;28;20224;-68
2021/07/16 03:05:29;;;;;;;9.33;5.67;;;23.00;73.20;;;;;;5063725;28;20220;-68
2021/07/16 03:07:59;;;;;;;13.03;5.50;;;23.00;73.30;;;;;;5062445;28;20241;-68
2021/07/16 03:10:28;;;;;;;9.37;5.80;;;22.90;73.30;;;;;;5062582;28;20279;-68
2021/07/16 03:12:56;;;;;;;15.83;7.00;;;22.90;73.40;;;;;;5064823;28;20217;-69
2021/07/16 03:15:25;;;;;;;11.63;6.77;;;22.90;73.60;;;;;;5065396;28;20268;-68
2021/07/16 03:17:53;;;;;;;11.00;6.57;;;22.90;73.90;;;;;;5067809;28;20269;-68
2021/07/16 03:20:24;;;;;;;18.87;6.57;;;22.90;74.10;;;;;;5066745;28;20242;-68
2021/07/16 03:22:52;;;;;;;7.67;6.43;;;22.80;74.30;;;;;;5061457;28;20715;-68
2021/07/16 03:25:20;;;;;;;10.93;6.60;;;22.80;74.50;;;;;;5065356;28;20217;-68
2021/07/16 03:27:48;;;;;;;10.17;7.17;;;22.90;74.70;;;;;;5065942;28;20222;-68
2021/07/16 03:30:18;;;;;;;14.93;8.30;;;22.80;74.80;;;;;;5067964;28;20209;-68
2021/07/16 03:32:45;;;;;;;10.97;8.67;;;22.80;75.00;;;;;;5067156;28;20214;-68
2021/07/16 03:35:12;;;;;;;11.47;9.37;;;22.90;75.20;;;;;;5066253;28;20214;-68
2021/07/16 03:37:41;;;;;;;11.53;10.00;;;22.80;75.40;;;;;;5068390;28;20227;-68
2021/07/16 03:40:11;;;;;;;12.27;9.40;;;22.90;75.50;;;;;;5065335;28;20229;-68
2021/07/16 03:42:39;;;;;;;13.43;10.30;;;22.90;75.60;;;;;;5067199;28;20278;-68
2021/07/16 03:45:07;;;;;;;11.87;10.57;;;22.90;75.70;;;;;;5068471;28;20205;-68
2021/07/16 03:47:34;;;;;;;13.23;11.67;;;22.90;75.70;;;;;;5067318;28;20228;-68
2021/07/16 03:50:01;;;;;;;14.67;12.53;;;23.00;75.80;;;;;;5065406;28;20571;-68
2021/07/16 03:52:28;;;;;;;15.60;11.77;;;23.00;75.80;;;;;;5062371;28;20207;-68
2021/07/16 03:54:55;;;;;;;16.27;12.57;;;23.00;75.70;;;;;;5065987;28;20552;-68
2021/07/16 03:57:22;;;;;;;15.70;12.77;;;23.00;75.70;;;;;;5066840;28;20267;-69
2021/07/16 03:59:49;;;;;;;15.57;13.90;;;23.00;75.50;;;;;;5067245;28;20214;-68
2021/07/16 04:02:16;;;;;;;18.40;15.93;;;23.10;75.50;;;;;;5068345;28;20214;-68
2021/07/16 04:04:44;;;;;;;17.63;15.83;;;23.10;75.50;;;;;;5064139;28;20575;-68
2021/07/16 04:07:17;;;;;;;18.13;13.93;;;23.10;75.50;;;;;;5064537;28;20230;-68
2021/07/16 04:09:44;;;;;;;17.80;13.23;;;23.10;75.20;;;;;;5066644;28;20276;-68
2021/07/16 04:12:12;;;;;;;15.07;13.57;;;23.10;75.00;;;;;;5066798;28;20214;-68
2021/07/16 04:14:46;;;;;;;16.50;13.47;;;23.20;74.90;;;;;;5065285;28;20218;-68
2021/07/16 04:17:22;;;;;;;17.93;14.83;;;23.10;74.70;;;;;;5065572;28;20297;-68
2021/07/16 04:19:50;;;;;;;17.30;13.67;;;23.20;74.80;;;;;;5065329;28;20307;-68
2021/07/16 04:22:19;;;;;;;16.23;13.67;;;23.10;74.70;;;;;;5063762;28;20218;-68
2021/07/16 04:24:46;;;;;;;14.83;12.20;;;23.10;74.90;;;;;;5064030;28;20214;-68
2021/07/16 04:27:13;;;;;;;12.60;9.83;;;23.10;75.10;;;;;;5066913;28;20282;-68
2021/07/16 04:29:42;;;;;;;15.47;9.63;;;23.10;75.30;;;;;;5065316;28;20553;-68
2021/07/16 04:32:12;;;;;;;14.93;9.10;;;23.00;75.30;;;;;;5065421;28;20213;-68
2021/07/16 04:34:40;;;;;;;12.90;7.90;;;22.90;75.60;;;;;;5067072;28;20217;-68
2021/07/16 04:37:08;;;;;;;9.80;6.87;;;22.90;75.80;;;;;;5063743;28;20222;-68
2021/07/16 04:39:36;;;;;;;9.33;6.67;;;22.90;75.80;;;;;;5066788;28;20287;-68
2021/07/16 04:42:04;;;;;;;19.47;9.00;;;22.80;76.00;;;;;;5065306;28;20233;-69
2021/07/16 04:44:31;;;;;;;19.13;9.60;;;22.80;76.60;;;;;;5067422;28;20210;-69
2021/07/16 04:46:59;;;;;;;14.70;8.43;;;22.70;77.60;;;;;;5064492;28;20210;-69
2021/07/16 04:49:27;;;;;;;8.93;7.00;;;22.60;78.70;;;;;;5066944;28;20248;-69
2021/07/16 04:51:55;;;;;;;7.80;6.20;;;22.40;79.50;;;;;;5063022;28;20205;-69
2021/07/16 04:54:22;;;;;;;11.33;6.43;;;22.20;80.20;;;;;;5062964;28;20237;-69
2021/07/16 04:56:50;;;;;;;15.90;7.30;;;22.10;80.70;;;;;;5065122;28;20250;-69
2021/07/16 04:59:17;;;;;;;9.77;5.67;;;22.00;81.30;;;;;;5064790;28;20263;-70
2021/07/16 05:01:44;;;;;;;14.13;6.80;;;21.90;81.80;;;;;;5066766;28;20209;-70
2021/07/16 05:04:15;;;;;;;13.90;7.13;;;21.80;82.30;;;;;;5063303;28;20229;-70
2021/07/16 05:06:42;;;;;;;13.70;6.00;;;21.70;82.70;;;;;;5065870;28;20221;-70
2021/07/16 05:09:09;;;;;;;10.67;5.90;;;21.70;83.20;;;;;;5062758;28;20288;-70
2021/07/16 05:11:36;;;;;;;9.73;5.33;;;21.60;83.50;;;;;;5066678;28;20207;-70
2021/07/16 05:14:03;;;;;;;7.57;4.93;;;21.60;83.70;;;;;;5062988;28;20214;-71
2021/07/16 05:16:30;;;;;;;14.47;6.17;;;21.50;83.80;;;;;;5066547;28;20663;-71
2021/07/16 05:18:57;;;;;;;12.40;6.00;;;21.40;84.10;;;;;;5063392;28;20247;-72
2021/07/16 05:21:24;;;;;;;11.83;5.17;;;21.30;84.50;;;;;;5063367;28;20552;-72
2021/07/16 05:23:51;;;;;;;12.27;5.13;;;21.30;84.80;;;;;;5063024;28;20272;-72
2021/07/16 05:26:19;;;;;;;10.67;5.70;;;21.20;84.90;;;;;;5065742;28;20216;-73
2021/07/16 05:28:48;;;;;;;11.53;5.20;;;21.10;85.10;;;;;;5064069;28;20230;-73
2021/07/16 05:31:17;;;;;;;7.70;4.00;;;21.10;85.50;;;;;;5066864;28;20213;-73
2021/07/16 05:33:45;;;;;;;9.93;4.43;;;21.00;85.70;;;;;;5059066;28;20628;-73
2021/07/16 05:36:13;;;;;;;8.50;3.77;;;21.00;86.20;;;;;;5062177;28;20536;-73
2021/07/16 05:38:40;;;;;;;8.17;4.33;;;20.90;86.50;;;;;;5065279;28;20809;-73
2021/07/16 05:41:08;;;;;;;7.93;4.87;;;20.90;86.80;;;;;;5060690;28;20244;-73
2021/07/16 05:43:36;;;;;;;9.07;5.03;;;20.90;87.10;;;;;;5067972;28;20209;-75
2021/07/16 05:46:03;;;;;;;14.00;5.37;;;20.90;87.30;;;;;;5066217;28;20214;-73
2021/07/16 05:48:31;;;;;;;6.63;4.40;;;20.90;87.60;;;;;;5063345;28;20234;-74
2021/07/16 05:51:00;;;;;;;6.73;4.17;;;20.90;87.60;;;;;;5063405;28;20228;-74
2021/07/16 05:53:28;;;;;;;4.03;2.93;;;20.90;87.80;;;;;;5060890;28;20242;-74
2021/07/16 05:55:55;;;;;;;4.60;3.13;;;20.90;87.90;;;;;;5062098;28;20272;-74
2021/07/16 05:58:22;;;;;;;4.03;3.67;;;20.90;87.90;;;;;;5064666;28;20216;-74
2021/07/16 06:00:49;;;;;;;5.47;3.73;;;20.90;88.00;;;;;;5061260;28;20210;-74
2021/07/16 06:03:16;;;;;;;4.73;2.90;;;20.90;88.10;;;;;;5063624;28;20324;-75
2021/07/16 06:05:43;;;;;;;3.80;3.17;;;20.90;88.10;;;;;;5063818;28;20263;-75
2021/07/16 06:08:10;;;;;;;4.03;2.43;;;20.90;88.00;;;;;;5064469;28;20210;-75
2021/07/16 06:10:37;;;;;;;2.67;1.90;;;20.90;88.00;;;;;;5062513;28;20233;-75
2021/07/16 06:13:04;;;;;;;1.90;1.70;;;20.90;87.80;;;;;;5065410;28;20221;-75
2021/07/16 06:15:31;;;;;;;4.60;2.17;;;20.90;87.70;;;;;;5062686;28;20320;-74
2021/07/16 06:18:02;;;;;;;5.87;2.37;;;20.90;87.70;;;;;;5063852;28;20213;-74
2021/07/16 06:20:30;;;;;;;3.53;2.00;;;20.90;87.70;;;;;;5064561;28;20640;-74
2021/07/16 06:22:57;;;;;;;3.17;2.03;;;20.90;87.70;;;;;;5061627;28;20217;-74
2021/07/16 06:25:24;;;;;;;5.87;2.13;;;20.90;87.80;;;;;;5062170;28;20241;-73
2021/07/16 06:27:51;;;;;;;3.83;2.50;;;20.90;88.00;;;;;;5065391;28;20527;-73
2021/07/16 06:30:18;;;;;;;6.23;2.47;;;20.90;88.30;;;;;;5061419;28;20234;-73
2021/07/16 06:32:48;;;;;;;3.73;2.27;;;20.90;88.30;;;;;;5065845;28;20217;-73
2021/07/16 06:35:15;;;;;;;3.30;2.17;;;20.90;88.40;;;;;;5061177;28;20272;-73
2021/07/16 06:37:42;;;;;;;6.10;2.80;;;20.90;88.40;;;;;;5062262;28;20213;-73
2021/07/16 06:40:09;;;;;;;5.50;2.50;;;20.90;88.50;;;;;;5064887;28;20221;-72
2021/07/16 06:42:37;;;;;;;4.00;2.80;;;20.90;88.60;;;;;;5064972;28;20218;-73
2021/07/16 06:45:05;;;;;;;5.73;2.67;;;20.90;88.60;;;;;;5062867;28;20236;-73
2021/07/16 06:47:32;;;;;;;3.33;2.33;;;20.90;88.70;;;;;;5062509;28;20640;-74
2021/07/16 06:49:59;;;;;;;3.60;2.80;;;21.00;88.80;;;;;;5063170;28;20230;-73
2021/07/16 06:52:33;;;;;;;4.17;2.50;;;21.00;88.80;;;;;;5059985;28;20219;-73
2021/07/16 06:55:01;;;;;;;6.60;2.93;;;21.00;88.90;;;;;;5064406;28;20214;-73
2021/07/16 06:57:28;;;;;;;5.60;2.87;;;21.00;89.00;;;;;;5062516;28;20211;-72
2021/07/16 06:59:55;;;;;;;3.90;2.77;;;21.10;89.10;;;;;;5062750;28;20214;-73
2021/07/16 07:02:22;;;;;;;2.73;2.50;;;21.10;89.10;;;;;;5063533;28;20229;-73
2021/07/16 07:04:49;;;;;;;3.90;2.57;;;21.10;88.90;;;;;;5059947;28;20535;-73
2021/07/16 07:07:16;;;;;;;2.77;2.53;;;21.20;89.00;;;;;;5060858;28;20210;-72
2021/07/16 07:09:43;;;;;;;2.70;2.50;;;21.20;89.00;;;;;;5064658;28;20245;-73
2021/07/16 07:12:10;;;;;;;4.03;2.70;;;21.20;89.10;;;;;;5062237;28;20217;-73
2021/07/16 07:14:37;;;;;;;5.07;3.07;;;21.20;89.10;;;;;;5063065;28;20214;-73
2021/07/16 07:17:04;;;;;;;4.40;2.87;;;21.30;89.10;;;;;;5063366;28;20671;-72
2021/07/16 07:19:31;;;;;;;3.43;2.73;;;21.30;88.90;;;;;;5061575;28;20253;-73
2021/07/16 07:21:58;;;;;;;4.20;2.60;;;21.30;88.80;;;;;;5062641;28;20294;-73
2021/07/16 07:24:25;;;;;;;3.47;2.57;;;21.40;88.80;;;;;;5060615;28;20210;-73
2021/07/16 07:26:55;;;;;;;3.00;2.80;;;21.40;88.70;;;;;;5061892;28;20227;-73
2021/07/16 07:29:23;;;;;;;3.63;2.47;;;21.40;88.60;;;;;;5062919;28;20233;-73
2021/07/16 07:31:50;;;;;;;6.00;3.00;;;21.40;88.50;;;;;;5063493;28;20260;-73
2021/07/16 07:34:17;;;;;;;2.10;1.87;;;21.40;88.40;;;;;;5061393;28;20620;-73
2021/07/16 07:36:47;;;;;;;3.53;2.30;;;21.40;88.30;;;;;;5060151;28;20268;-73
2021/07/16 07:39:14;;;;;;;3.13;2.70;;;21.40;88.10;;;;;;5065048;28;20237;-73
2021/07/16 07:41:45;;;;;;;3.60;2.93;;;21.40;88.10;;;;;;5064979;28;20219;-73
2021/07/16 07:44:16;;;;;;;7.40;4.60;;;21.40;88.20;;;;;;5065937;28;20280;-73
2021/07/16 07:46:44;;;;;;;6.43;3.67;;;21.40;88.10;;;;;;5064584;28;20214;-73
2021/07/16 07:49:13;;;;;;;5.90;3.47;;;21.40;88.20;;;;;;5063927;28;20241;-73
2021/07/16 07:51:42;;;;;;;7.40;3.73;;;21.50;88.40;;;;;;5059739;28;20301;-73
2021/07/16 07:54:10;;;;;;;9.27;4.07;;;21.50;88.40;;;;;;5061225;28;20198;-73
2021/07/16 07:56:37;;;;;;;5.93;4.20;;;21.60;88.40;;;;;;5063239;28;20228;-73
2021/07/16 07:59:06;;;;;;;4.23;2.87;;;21.60;88.40;;;;;;5061820;28;20222;-73
2021/07/16 08:01:34;;;;;;;4.33;3.70;;;21.70;88.30;;;;;;5063982;28;20301;-73
2021/07/16 08:04:03;;;;;;;4.33;3.10;;;21.70;88.20;;;;;;5067742;28;20692;-73
2021/07/16 08:06:34;;;;;;;58.07;17.57;;;21.80;88.00;;;;;;5064662;28;20297;-73
2021/07/16 08:09:02;;;;;;;4.13;2.90;;;21.80;87.80;;;;;;5066867;28;20218;-73
2021/07/16 08:11:30;;;;;;;4.80;4.13;;;21.90;87.80;;;;;;5061552;28;20711;-72
2021/07/16 08:13:59;;;;;;;10.70;3.50;;;22.00;87.80;;;;;;5066082;28;20259;-72
2021/07/16 08:16:26;;;;;;;3.60;3.30;;;22.00;87.90;;;;;;5063765;28;20198;-72
2021/07/16 08:18:53;;;;;;;7.33;3.53;;;22.00;87.70;;;;;;5064563;28;20242;-72
2021/07/16 08:21:22;;;;;;;5.60;3.77;;;22.00;87.50;;;;;;5065066;28;20574;-72
2021/07/16 08:23:50;;;;;;;8.37;4.67;;;22.00;87.50;;;;;;5063781;28;20237;-72
2021/07/16 08:26:19;;;;;;;6.83;4.13;;;21.90;87.40;;;;;;5063701;28;20222;-71
2021/07/16 08:28:51;;;;;;;6.23;4.10;;;21.90;87.40;;;;;;5063259;28;20203;-72
2021/07/16 08:31:20;;;;;;;5.27;3.60;;;21.90;87.50;;;;;;5064451;28;20254;-72
2021/07/16 08:33:47;;;;;;;2.70;2.47;;;21.90;87.60;;;;;;5060200;28;20202;-72
2021/07/16 08:36:13;;;;;;;2.73;2.53;;;21.90;87.80;;;;;;5062367;28;20214;-72
2021/07/16 08:38:40;;;;;;;3.57;2.37;;;21.90;87.70;;;;;;5064289;28;20218;-72
2021/07/16 08:41:08;;;;;;;5.67;2.73;;;21.80;87.60;;;;;;5060975;28;20604;-72
2021/07/16 08:43:35;;;;;;;2.80;2.60;;;21.80;87.70;;;;;;5068009;28;20271;-72
2021/07/16 08:46:03;;;;;;;3.17;2.90;;;21.80;87.70;;;;;;5066447;28;20206;-72
2021/07/16 08:48:30;;;;;;;3.40;3.10;;;21.80;87.70;;;;;;5062985;28;20297;-71
2021/07/16 08:51:00;;;;;;;4.93;2.87;;;21.70;87.90;;;;;;5062804;28;20265;-72
2021/07/16 08:53:28;;;;;;;3.37;2.70;;;21.70;88.10;;;;;;5062473;28;20217;-72
2021/07/16 08:55:55;;;;;;;9.43;3.80;;;21.80;88.10;;;;;;5065062;28;20215;-72
2021/07/16 08:58:22;;;;;;;3.23;2.90;;;21.80;88.10;;;;;;5063474;28;20764;-72
2021/07/16 09:00:50;;;;;;;3.60;2.77;;;21.80;88.30;;;;;;5066084;28;20218;-72
2021/07/16 09:03:18;;;;;;;3.50;3.20;;;21.80;88.30;;;;;;5065676;28;20206;-72
2021/07/16 09:05:45;;;;;;;2.80;2.50;;;21.80;88.30;;;;;;5059902;28;20206;-72
2021/07/16 09:08:31;;;;;;;4.60;2.83;;;21.90;88.30;;;;;;5065445;28;20214;-72
2021/07/16 09:10:59;;;;;;;4.30;2.80;;;21.90;87.90;;;;;;5059247;28;20222;-72
2021/07/16 09:13:29;;;;;;;3.47;3.10;;;22.00;87.80;;;;;;5066928;28;20536;-71
2021/07/16 09:16:01;;;;;;;3.30;3.10;;;22.00;87.80;;;;;;5064012;28;20296;-72
2021/07/16 09:18:30;;;;;;;3.50;3.20;;;22.00;87.70;;;;;;5062401;28;20320;-72
2021/07/16 09:21:03;;;;;;;4.43;4.13;;;22.00;87.60;;;;;;5063799;28;20214;-72
2021/07/16 09:23:39;;;;;;;4.93;4.43;;;22.10;87.90;;;;;;5064446;28;20213;-72
2021/07/16 09:26:11;;;;;;;5.30;4.80;;;22.10;87.90;;;;;;5063147;28;20424;-72
2021/07/16 09:28:43;;;;;;;5.30;4.80;;;22.20;87.70;;;;;;5066595;28;20271;-72
2021/07/16 09:31:15;;;;;;;5.00;4.60;;;22.20;87.40;;;;;;5070337;28;20233;-71
2021/07/16 09:33:57;;;;;;;5.97;5.43;;;22.30;87.10;;;;;;5074780;28;20687;-71
2021/07/16 09:36:28;;;;;;;4.77;4.23;;;22.30;86.90;;;;;;5074463;28;20202;-71
2021/07/16 09:39:05;;;;;;;5.53;5.00;;;22.40;86.50;;;;;;5056706;28;20216;-71
2021/07/16 09:41:32;;;;;;;5.77;4.97;;;22.40;85.70;;;;;;5054377;28;20210;-72
2021/07/16 09:44:01;;;;;;;6.47;5.87;;;22.50;85.90;;;;;;5063334;28;20202;-72
2021/07/16 09:46:29;;;;;;;5.83;5.33;;;22.60;85.70;;;;;;5074529;28;20580;-72
2021/07/16 09:49:11;;;;;;;5.30;4.83;;;22.70;85.90;;;;;;5074283;28;20245;-72
2021/07/16 09:51:42;;;;;;;6.23;5.67;;;22.90;85.70;;;;;;5074304;28;20211;-71
2021/07/16 09:54:13;;;;;;;5.83;5.37;;;23.00;85.00;;;;;;5074339;28;20220;-71
2021/07/16 09:56:40;;;;;;;7.30;5.20;;;23.20;84.70;;;;;;5074096;28;20201;-72
2021/07/16 09:59:17;;;;;;;6.27;5.53;;;23.40;84.40;;;;;;5074381;28;20213;-72
2021/07/16 10:01:48;;;;;;;5.50;5.10;;;23.60;84.10;;;;;;5074264;28;20546;-71
2021/07/16 10:04:17;;;;;;;4.47;4.07;;;23.70;83.90;;;;;;5074062;28;20209;-72
2021/07/16 10:06:49;;;;;;;5.23;4.80;;;23.90;83.80;;;;;;5073990;28;20291;-72
2021/07/16 10:09:21;;;;;;;3.93;3.53;;;24.00;83.40;;;;;;5073813;28;20214;-72
2021/07/16 10:11:52;;;;;;;3.13;2.90;;;24.00;82.90;;;;;;5074137;28;20202;-72
2021/07/16 10:14:20;;;;;;;3.30;3.00;;;24.10;82.70;;;;;;5074049;28;20214;-72
2021/07/16 10:16:50;;;;;;;3.63;2.80;;;24.10;82.10;;;;;;5073717;28;20293;-72
2021/07/16 10:19:18;;;;;;;2.87;2.50;;;24.10;81.50;;;;;;5073455;28;20577;-71
2021/07/16 10:21:47;;;;;;;3.40;3.10;;;24.10;81.10;;;;;;5073588;28;20225;-71
2021/07/16 10:24:19;;;;;;;2.53;2.33;;;24.10;81.70;;;;;;5072668;28;20239;-72
2021/07/16 10:26:50;;;;;;;2.40;2.30;;;24.20;81.90;;;;;;5072922;28;20198;-71
2021/07/16 10:29:45;;;;;;;2.20;2.10;;;24.20;81.10;;;;;;5072430;28;20213;-72
2021/07/16 10:32:43;;;;;;;2.30;2.10;;;24.30;79.00;;;;;;5072765;28;20206;-72
2021/07/16 10:35:14;;;;;;;2.70;2.40;;;24.40;79.00;;;;;;5073016;28;20621;-71
2021/07/16 10:37:41;;;;;;;3.10;2.90;;;24.50;78.90;;;;;;5072304;28;20208;-71
2021/07/16 10:40:08;;;;;;;4.37;4.07;;;24.60;79.10;;;;;;5072845;28;20569;-71
2021/07/16 10:42:40;;;;;;;5.20;4.80;;;24.60;79.10;;;;;;5072316;28;20214;-72
2021/07/16 10:45:09;;;;;;;5.30;4.90;;;24.60;79.30;;;;;;5072658;28;20205;-72
2021/07/16 10:47:43;;;;;;;5.93;5.37;;;24.60;78.80;;;;;;5072502;28;20304;-72
2021/07/16 10:50:13;;;;;;;5.80;5.10;;;24.70;79.50;;;;;;5073441;28;20221;-71
2021/07/16 10:52:51;;;;;;;4.00;3.63;;;24.70;79.40;;;;;;5072666;28;20213;-71
2021/07/16 10:55:39;;;;;;;3.33;3.13;;;24.80;79.50;;;;;;5072797;28;20208;-72
2021/07/16 10:58:35;;;;;;;4.60;4.10;;;24.90;79.40;;;;;;5073111;28;20210;-72
2021/07/16 11:01:04;;;;;;;5.83;3.83;;;25.00;79.80;;;;;;5072441;28;20213;-71
2021/07/16 11:03:51;;;;;;;4.40;3.57;;;25.10;78.30;;;;;;5072976;28;20217;-71
2021/07/16 11:06:20;;;;;;;3.80;3.50;;;25.30;78.80;;;;;;5059974;28;20209;-72
2021/07/16 11:08:52;;;;;;;3.67;3.37;;;25.40;77.20;;;;;;5073332;28;20279;-72
2021/07/16 11:11:34;;;;;;;3.53;3.23;;;25.50;76.20;;;;;;5073072;28;20225;-72
2021/07/16 11:14:01;;;;;;;3.37;2.60;;;25.50;76.30;;;;;;5073079;28;20213;-72
2021/07/16 11:16:29;;;;;;;3.30;3.10;;;25.60;75.60;;;;;;5072263;28;20236;-72
2021/07/16 11:19:05;;;;;;;4.43;3.43;;;25.70;75.30;;;;;;5073028;28;20241;-72
2021/07/16 11:21:46;;;;;;;4.00;3.60;;;25.70;75.50;;;;;;5072632;28;20296;-72
2021/07/16 11:24:19;;;;;;;4.07;3.40;;;25.90;75.80;;;;;;5073178;28;20292;-72
2021/07/16 11:26:50;;;;;;;3.43;3.23;;;26.00;75.90;;;;;;5072870;28;20232;-72
2021/07/16 11:29:18;;;;;;;3.53;3.20;;;26.20;75.80;;;;;;5073335;28;20209;-73
2021/07/16 11:31:45;;;;;;;3.67;3.00;;;26.40;74.60;;;;;;5072806;28;20237;-72
2021/07/16 11:34:17;;;;;;;2.77;2.43;;;26.60;74.30;;;;;;5073727;28;20607;-72
2021/07/16 11:36:54;;;;;;;2.60;2.40;;;26.70;73.70;;;;;;5076831;28;20715;-72
2021/07/16 11:39:52;;;;;;;3.70;2.50;;;27.00;71.60;;;;;;5076772;28;20643;-72
2021/07/16 11:42:20;;;;;;;3.13;2.23;;;27.20;71.70;;;;;;5072335;28;20214;-73
2021/07/16 11:44:48;;;;;;;3.77;2.87;;;27.50;71.10;;;;;;5073786;28;20209;-73
2021/07/16 11:47:15;;;;;;;5.07;2.43;;;27.80;69.80;;;;;;5056558;28;20232;-72
2021/07/16 11:49:47;;;;;;;3.30;1.90;;;27.90;68.20;;;;;;5056539;28;20655;-72
2021/07/16 11:52:16;;;;;;;2.60;2.10;;;27.90;68.40;;;;;;5067609;28;20202;-72
2021/07/16 11:54:44;;;;;;;3.77;2.13;;;27.90;68.10;;;;;;5076436;28;20690;-72
2021/07/16 11:57:14;;;;;;;3.00;1.80;;;28.00;66.80;;;;;;5076267;28;20210;-72
2021/07/16 11:59:51;;;;;;;2.40;2.20;;;28.00;66.50;;;;;;5076360;28;20201;-72
2021/07/16 12:02:23;;;;;;;2.40;2.20;;;27.90;67.30;;;;;;5076153;28;20209;-72
2021/07/16 12:04:57;;;;;;;5.00;2.30;;;27.90;67.50;;;;;;5076283;28;20221;-73
2021/07/16 12:07:24;;;;;;;3.83;2.10;;;27.80;67.80;;;;;;5076374;28;20194;-72
2021/07/16 12:09:51;;;;;;;2.30;2.07;;;27.80;68.00;;;;;;5076402;28;20212;-72
2021/07/16 12:12:23;;;;;;;5.13;2.43;;;27.80;67.10;;;;;;5076070;28;20261;-73
2021/07/16 12:14:54;;;;;;;5.10;2.33;;;27.80;66.70;;;;;;5076270;28;20213;-73
2021/07/16 12:17:27;;;;;;;3.60;2.53;;;27.80;65.70;;;;;;5076120;28;20206;-73
2021/07/16 12:22:49;;;;;;;4.20;2.50;;;27.80;65.10;;;;;;5076066;28;20219;-73
2021/07/16 12:25:17;;;;;;;2.97;1.90;;;27.80;64.90;;;;;;5075802;28;20248;-73
2021/07/16 12:27:44;;;;;;;3.07;2.20;;;27.80;64.50;;;;;;5076324;28;20237;-73
2021/07/16 12:30:14;;;;;;;3.50;1.90;;;27.90;61.90;;;;;;5075628;28;20224;-73
2021/07/16 12:32:46;;;;;;;4.67;2.70;;;28.00;62.80;;;;;;5075586;28;20210;-73
2021/07/16 12:35:22;;;;;;;6.17;2.50;;;28.20;61.90;;;;;;5075252;28;20220;-73
2021/07/16 12:37:51;;;;;;;3.37;2.23;;;28.50;62.40;;;;;;5075007;28;20224;-73
2021/07/16 12:40:21;;;;;;;3.80;2.50;;;28.80;62.40;;;;;;5074841;28;20291;-73
2021/07/16 12:43:03;;;;;;;4.57;2.47;;;29.00;58.80;;;;;;5075030;28;20636;-73
2021/07/16 12:46:03;;;;;;;3.77;2.70;;;29.20;60.20;;;;;;5055061;28;20296;-73
2021/07/16 12:48:35;;;;;;;2.33;1.90;;;29.50;60.80;;;;;;5042363;28;20220;-73
2021/07/16 12:51:02;;;;;;;3.43;2.30;;;29.60;58.80;;;;;;5056162;28;20242;-74
2021/07/16 12:53:31;;;;;;;3.67;1.77;;;29.70;59.00;;;;;;5074708;28;20206;-73
2021/07/16 12:56:11;;;;;;;2.47;2.27;;;29.90;57.10;;;;;;5074722;28;20245;-73